Time;durP1;ratioP1;P1;durP2;ratioP2;P2;SDS_P1;SDS_P2;PMS_P1;PMS_P2;Temp;Humidity;BMP_temperature;BMP_pressure;BME280_temperature;BME280_humidity;BME280_pressure;Samples;Min_cycle;Max_cycle;Signal;HPM_P1;HPM_P2
2022/02/12 00:00:52;;;;;;;13.03;8.50;;;;;;;1.17;96.04;101049.41;1668663;84;25589;-71
2022/02/12 00:03:19;;;;;;;11.10;8.23;;;;;;;1.16;95.75;101058.46;1653578;84;25519;-71
2022/02/12 00:05:45;;;;;;;12.50;7.60;;;;;;;1.14;95.37;101053.86;1668233;86;26239;-71
2022/02/12 00:08:11;;;;;;;13.22;6.72;;;;;;;1.13;95.15;101052.78;1668716;85;25703;-71
2022/02/12 00:10:38;;;;;;;8.73;5.90;;;;;;;1.10;94.81;101064.69;1668543;86;27339;-71
2022/02/12 00:13:11;;;;;;;9.58;5.67;;;;;;;1.08;94.57;101068.91;1668166;85;25640;-71
2022/02/12 00:15:40;;;;;;;9.83;5.85;;;;;;;1.05;94.44;101069.88;1668156;84;25700;-72
2022/02/12 00:18:07;;;;;;;7.20;4.85;;;;;;;1.03;94.11;101075.97;1668549;85;26359;-72
2022/02/12 00:20:35;;;;;;;7.33;3.90;;;;;;;0.96;93.09;101077.91;1668483;85;25782;-71
2022/02/12 00:23:01;;;;;;;7.47;4.17;;;;;;;0.87;92.19;101076.89;1668627;85;28058;-71
2022/02/12 00:25:28;;;;;;;8.68;4.00;;;;;;;0.80;92.23;101097.97;1668624;86;25661;-71
2022/02/12 00:27:54;;;;;;;7.72;3.85;;;;;;;0.74;92.15;101099.69;1668368;85;25710;-71
2022/02/12 00:30:20;;;;;;;9.40;4.12;;;;;;;0.70;92.32;101105.18;1667242;85;25773;-71
2022/02/12 00:32:47;;;;;;;8.08;4.20;;;;;;;0.64;92.25;101122.84;1668259;86;25573;-71
2022/02/12 00:35:13;;;;;;;9.33;4.42;;;;;;;0.61;92.24;101132.59;1669047;85;27397;-71
2022/02/12 00:37:39;;;;;;;7.87;4.05;;;;;;;0.58;92.32;101141.55;1666895;84;25783;-71
2022/02/12 00:40:07;;;;;;;8.30;4.10;;;;;;;0.56;92.56;101141.77;1668690;85;25700;-72
2022/02/12 00:42:33;;;;;;;13.48;5.10;;;;;;;0.53;92.70;101154.22;1668650;85;25702;-72
2022/02/12 00:45:00;;;;;;;9.40;3.95;;;;;;;0.51;92.81;101159.76;1668464;84;25736;-72
2022/02/12 00:47:28;;;;;;;7.25;3.83;;;;;;;0.51;92.82;101166.41;1668619;84;27339;-73
2022/02/12 00:49:55;;;;;;;9.30;4.25;;;;;;;0.50;92.71;101178.08;1668671;84;25887;-74
2022/02/12 00:52:22;;;;;;;6.67;3.40;;;;;;;0.49;92.70;101178.30;1669252;84;25791;-75
2022/02/12 00:54:48;;;;;;;4.83;3.15;;;;;;;0.49;92.66;101185.76;1668836;85;26312;-75
2022/02/12 00:57:14;;;;;;;10.10;3.72;;;;;;;0.49;92.41;101188.95;1641853;85;25799;-75
2022/02/12 00:59:40;;;;;;;7.75;4.10;;;;;;;0.47;92.36;101190.50;1667873;86;27361;-75
2022/02/12 01:02:07;;;;;;;7.75;3.92;;;;;;;0.46;92.40;101191.55;1668223;86;25695;-75
2022/02/12 01:04:33;;;;;;;9.03;3.85;;;;;;;0.46;92.39;101198.20;1668584;86;25508;-75
2022/02/12 01:07:00;;;;;;;6.85;3.83;;;;;;;0.45;92.39;101199.22;1668857;85;26247;-75
2022/02/12 01:09:26;;;;;;;8.03;3.33;;;;;;;0.44;92.31;101192.78;1668987;86;25412;-76
2022/02/12 01:11:52;;;;;;;7.30;3.05;;;;;;;0.44;92.19;101204.77;1668669;85;27347;-75
2022/02/12 01:14:19;;;;;;;7.47;3.17;;;;;;;0.44;92.15;101208.76;1668837;86;25659;-75
2022/02/12 01:16:45;;;;;;;8.78;3.33;;;;;;;0.43;92.14;101217.80;1668935;86;25581;-75
2022/02/12 01:19:11;;;;;;;7.90;3.25;;;;;;;0.42;91.95;101219.62;1668871;86;25677;-75
2022/02/12 01:21:38;;;;;;;6.65;3.00;;;;;;;0.41;91.98;101233.14;1669982;86;25435;-76
2022/02/12 01:24:06;;;;;;;4.78;2.50;;;;;;;0.41;92.09;101235.80;1669642;85;27397;-75
2022/02/12 01:26:32;;;;;;;5.08;2.70;;;;;;;0.40;91.86;101240.33;1669018;85;25428;-75
2022/02/12 01:28:58;;;;;;;6.35;2.55;;;;;;;0.39;91.66;101244.00;1668976;86;25501;-75
2022/02/12 01:31:25;;;;;;;5.47;2.37;;;;;;;0.40;91.76;101246.17;1668819;85;25758;-75
2022/02/12 01:33:51;;;;;;;4.90;2.52;;;;;;;0.35;91.39;101254.28;1667859;85;25633;-76
2022/02/12 01:36:17;;;;;;;6.45;2.62;;;;;;;0.36;91.40;101257.77;1668870;85;27396;-75
2022/02/12 01:38:44;;;;;;;5.25;2.25;;;;;;;0.35;91.39;101257.46;1668787;86;25491;-76
2022/02/12 01:41:10;;;;;;;4.95;2.50;;;;;;;0.34;91.43;101267.30;1668531;85;25651;-76
2022/02/12 01:43:37;;;;;;;6.95;2.22;;;;;;;0.36;91.30;101276.41;1668622;86;26332;-75
2022/02/12 01:46:03;;;;;;;5.47;1.82;;;;;;;0.34;91.15;101269.12;1668405;85;25601;-75
2022/02/12 01:48:30;;;;;;;5.17;2.22;;;;;;;0.32;90.98;101277.36;1668918;85;27330;-75
2022/02/12 01:50:56;;;;;;;3.47;1.87;;;;;;;0.32;90.97;101278.69;1668828;86;25605;-75
2022/02/12 01:53:25;;;;;;;3.00;2.00;;;;;;;0.31;90.77;101285.55;1661340;84;25601;-75
2022/02/12 01:55:53;;;;;;;4.17;2.20;;;;;;;0.29;90.53;101287.09;1659114;86;25841;-75
2022/02/12 01:58:19;;;;;;;5.08;2.20;;;;;;;0.26;90.45;101297.36;1636049;86;25641;-76
2022/02/12 02:00:46;;;;;;;5.90;2.33;;;;;;;0.23;90.24;101294.60;1659165;86;27423;-75
2022/02/12 02:03:14;;;;;;;5.62;2.10;;;;;;;0.18;90.23;101310.40;1659084;86;25594;-76
2022/02/12 02:05:40;;;;;;;3.85;1.85;;;;;;;0.16;90.24;101318.59;1659139;86;25590;-76
2022/02/12 02:08:06;;;;;;;7.35;2.90;;;;;;;0.13;90.06;101318.21;1659084;86;26159;-75
2022/02/12 02:10:33;;;;;;;5.17;2.45;;;;;;;0.09;89.98;101321.81;1659137;86;25481;-75
2022/02/12 02:12:59;;;;;;;3.72;2.17;;;;;;;0.07;89.97;101332.35;1659133;86;28088;-75
2022/02/12 02:15:25;;;;;;;5.15;2.35;;;;;;;0.04;90.11;101337.60;1659052;86;25631;-75
2022/02/12 02:17:52;;;;;;;6.92;2.72;;;;;;;0.04;90.17;101342.12;1659143;86;25427;-75
2022/02/12 02:20:18;;;;;;;7.95;2.42;;;;;;;0.03;90.24;101351.92;1659148;86;25649;-76
2022/02/12 02:22:54;;;;;;;6.87;2.37;;;;;;;0.03;90.19;101357.23;1659130;86;25570;-75
2022/02/12 02:25:22;;;;;;;4.92;2.65;;;;;;;0.03;90.17;101366.55;1659143;86;27413;-75
2022/02/12 02:27:49;;;;;;;5.37;2.42;;;;;;;0.04;90.20;101366.06;1659004;86;25888;-75
2022/02/12 02:30:19;;;;;;;5.45;2.83;;;;;;;0.05;90.25;101378.31;1659085;86;25729;-75
2022/02/12 02:32:46;;;;;;;6.78;2.60;;;;;;;0.03;90.09;101371.88;1659206;86;25620;-74
2022/02/12 02:35:18;;;;;;;4.15;2.58;;;;;;;0.04;90.00;101384.16;1659161;86;25597;-74
2022/02/12 02:37:43;;;;;;;6.30;2.52;;;;;;;0.03;89.91;101383.03;1658878;86;26912;-74
2022/02/12 02:40:18;;;;;;;5.90;2.70;;;;;;;0.00;89.65;101381.63;1659036;86;25678;-74
2022/02/12 02:42:51;;;;;;;5.25;2.27;;;;;;;-0.01;89.61;101391.95;1659131;86;25669;-74
2022/02/12 02:45:19;;;;;;;4.58;2.15;;;;;;;-0.03;89.34;101396.68;1659083;86;25626;-74
2022/02/12 02:47:46;;;;;;;6.50;2.67;;;;;;;-0.05;89.21;101408.02;1659097;86;25451;-74
2022/02/12 02:55:59;;;;;;;5.97;2.30;;;;;;;-0.06;89.34;101435.66;1669040;86;25599;-75
2022/02/12 02:58:38;;;;;;;3.52;2.20;;;;;;;-0.06;89.14;101445.78;1668753;85;25603;-75
2022/02/12 03:01:12;;;;;;;6.50;2.77;;;;;;;-0.05;89.16;101455.41;1668658;85;25432;-74
2022/02/12 03:03:41;;;;;;;5.50;2.37;;;;;;;-0.03;89.07;101462.66;1668563;86;27386;-74
2022/02/12 03:06:09;;;;;;;5.90;2.47;;;;;;;-0.03;89.11;101467.17;1668425;86;25421;-74
2022/02/12 03:08:37;;;;;;;4.00;1.92;;;;;;;-0.01;89.07;101471.24;1668920;86;25395;-74
2022/02/12 03:11:05;;;;;;;4.67;2.42;;;;;;;-0.02;88.82;101472.28;1668968;86;25639;-74
2022/02/12 03:13:31;;;;;;;7.80;2.85;;;;;;;-0.02;88.72;101478.09;1668848;85;25436;-74
2022/02/12 03:15:58;;;;;;;7.10;2.25;;;;;;;-0.04;88.64;101486.28;1669003;85;27823;-74
2022/02/12 03:18:25;;;;;;;5.60;2.37;;;;;;;-0.04;88.69;101497.45;1668649;85;25748;-74
2022/02/12 03:20:52;;;;;;;4.65;2.35;;;;;;;-0.07;88.58;101499.19;1668873;85;25632;-74
2022/02/12 03:23:18;;;;;;;3.35;1.98;;;;;;;-0.09;88.55;101504.71;1668926;85;25644;-74
2022/02/12 03:25:45;;;;;;;9.03;2.87;;;;;;;-0.10;88.51;101506.25;1668955;86;25440;-74
2022/02/12 03:28:13;;;;;;;6.85;3.20;;;;;;;-0.15;88.47;101512.21;1638079;86;27612;-74
2022/02/12 03:30:43;;;;;;;6.30;2.62;;;;;;;-0.18;88.41;101523.78;1668887;86;25472;-74
2022/02/12 03:33:09;;;;;;;8.33;2.70;;;;;;;-0.21;88.35;101523.66;1668778;85;25597;-74
2022/02/12 03:35:36;;;;;;;5.42;2.80;;;;;;;-0.26;88.36;101528.27;1668163;86;26302;-74
2022/02/12 03:38:13;;;;;;;9.10;2.75;;;;;;;-0.30;88.27;101537.69;1668974;85;25655;-74
2022/02/12 03:40:44;;;;;;;11.70;4.10;;;;;;;-0.34;88.31;101536.97;1668827;85;27347;-74
2022/02/12 03:43:11;;;;;;;8.03;3.70;;;;;;;-0.39;88.37;101538.41;1668675;85;26079;-75
2022/02/12 03:45:39;;;;;;;5.10;2.95;;;;;;;-0.43;88.41;101541.68;1668961;86;25479;-75
2022/02/12 03:48:06;;;;;;;7.00;3.67;;;;;;;-0.49;88.44;101548.64;1668909;86;25688;-74
2022/02/12 03:50:34;;;;;;;6.97;3.47;;;;;;;-0.51;88.59;101560.00;1668608;85;25685;-74
2022/02/12 03:53:04;;;;;;;5.72;3.12;;;;;;;-0.55;88.65;101550.77;1669482;84;28096;-74
2022/02/12 03:55:36;;;;;;;8.40;3.15;;;;;;;-0.57;88.72;101559.47;1669284;85;25716;-73
2022/02/12 03:58:00;;;;;;;6.95;3.30;;;;;;;-0.61;88.74;101566.23;1668249;85;25463;-73
2022/02/12 04:00:26;;;;;;;7.17;3.30;;;;;;;-0.66;88.71;101564.17;1667898;86;26258;-74
2022/02/12 04:02:52;;;;;;;6.92;4.42;;;;;;;-0.69;88.72;101569.88;1668790;85;25684;-74
2022/02/12 04:05:18;;;;;;;9.17;4.73;;;;;;;-0.72;88.69;101572.94;1668219;86;27344;-75
2022/02/12 04:07:45;;;;;;;11.73;5.37;;;;;;;-0.77;88.63;101573.57;1637955;86;25592;-75
2022/02/12 04:10:16;;;;;;;21.10;8.55;;;;;;;-0.80;88.75;101580.61;1668722;85;25495;-75
2022/02/12 04:12:44;;;;;;;50.73;20.68;;;;;;;-0.83;88.86;101585.51;1668906;86;25625;-75
2022/02/12 04:15:12;;;;;;;60.12;23.07;;;;;;;-0.86;88.92;101597.34;1668887;85;25417;-75
2022/02/12 04:17:39;;;;;;;54.63;23.05;;;;;;;-0.89;88.81;101600.39;1668925;85;28054;-75
2022/02/12 04:20:12;;;;;;;45.03;20.17;;;;;;;-0.93;88.87;101603.16;1668807;86;25660;-75
2022/02/12 04:22:41;;;;;;;38.42;19.00;;;;;;;-0.96;88.97;101602.22;1668637;86;25464;-75
2022/02/12 04:25:14;;;;;;;34.83;16.82;;;;;;;-1.01;88.98;101609.45;1669152;86;25609;-75
2022/02/12 04:27:41;;;;;;;27.75;14.53;;;;;;;-1.03;89.05;101615.48;1668964;86;25652;-75
2022/02/12 04:30:10;;;;;;;23.47;12.28;;;;;;;-1.05;89.25;101622.83;1668763;85;27407;-75
2022/02/12 04:32:37;;;;;;;18.20;10.98;;;;;;;-1.08;89.17;101632.52;1660610;86;25754;-75
2022/02/12 04:35:05;;;;;;;15.03;9.88;;;;;;;-1.10;89.27;101636.41;1668921;86;25604;-75
2022/02/12 04:37:32;;;;;;;13.22;9.05;;;;;;;-1.14;89.27;101635.47;1668677;85;25530;-75
2022/02/12 04:39:59;;;;;;;11.93;7.90;;;;;;;-1.16;89.34;101640.65;1668724;85;25599;-75
2022/02/12 04:42:25;;;;;;;12.30;6.65;;;;;;;-1.20;89.26;101636.77;1668889;85;27477;-75
2022/02/12 04:44:54;;;;;;;10.18;5.97;;;;;;;-1.22;89.45;101639.61;1668722;85;25585;-75
2022/02/12 04:47:21;;;;;;;12.68;6.42;;;;;;;-1.25;89.45;101637.86;1667317;86;25226;-75
2022/02/12 04:49:49;;;;;;;12.10;6.58;;;;;;;-1.28;89.65;101636.41;1638500;86;26296;-75
2022/02/12 04:52:18;;;;;;;11.93;6.97;;;;;;;-1.29;89.83;101639.25;1668710;85;25456;-75
2022/02/12 04:54:45;;;;;;;13.78;6.58;;;;;;;-1.32;89.88;101647.13;1668995;84;28115;-76
2022/02/12 04:57:13;;;;;;;21.23;8.08;;;;;;;-1.34;90.00;101653.14;1668538;85;25646;-76
2022/02/12 04:59:40;;;;;;;15.18;7.25;;;;;;;-1.37;90.05;101659.64;1668935;86;25589;-76
2022/02/12 05:02:06;;;;;;;26.15;11.30;;;;;;;-1.38;90.11;101659.84;1668877;86;26108;-75
2022/02/12 05:04:33;;;;;;;29.82;13.40;;;;;;;-1.40;90.27;101664.02;1668964;86;25487;-75
2022/02/12 05:06:59;;;;;;;22.20;9.38;;;;;;;-1.41;90.24;101664.23;1668610;85;27494;-76
2022/02/12 05:09:26;;;;;;;18.75;8.33;;;;;;;-1.44;90.24;101668.08;1668822;85;25586;-76
2022/02/12 05:11:52;;;;;;;19.45;7.62;;;;;;;-1.46;90.37;101675.91;1668911;86;25448;-76
2022/02/12 05:14:19;;;;;;;12.37;6.33;;;;;;;-1.48;90.41;101672.16;1668632;86;25666;-76
2022/02/12 05:16:46;;;;;;;11.80;6.40;;;;;;;-1.48;90.43;101677.95;1667833;86;25662;-76
2022/02/12 05:19:12;;;;;;;18.10;8.60;;;;;;;-1.51;90.47;101682.64;1668677;86;28077;-76
2022/02/12 05:21:40;;;;;;;15.95;7.92;;;;;;;-1.52;90.43;101687.63;1668823;85;25831;-74
2022/02/12 05:24:07;;;;;;;14.87;6.97;;;;;;;-1.58;90.47;101679.12;1668493;85;25420;-75
2022/02/12 05:26:34;;;;;;;13.00;6.20;;;;;;;-1.56;90.58;101687.70;1668638;86;26416;-75
2022/02/12 05:29:00;;;;;;;8.48;4.75;;;;;;;-1.57;90.67;101694.02;1668815;85;25558;-75
2022/02/12 05:31:26;;;;;;;6.15;4.25;;;;;;;-1.59;90.68;101692.07;1668935;85;27494;-75
2022/02/12 05:33:52;;;;;;;13.20;5.03;;;;;;;-1.60;90.72;101693.10;1668886;85;25622;-75
2022/02/12 05:36:19;;;;;;;16.25;7.12;;;;;;;-1.62;90.66;101704.39;1668424;86;25572;-75
2022/02/12 05:38:45;;;;;;;21.82;10.98;;;;;;;-1.62;90.75;101712.35;1668759;86;25716;-75
2022/02/12 05:41:16;;;;;;;9.90;6.12;;;;;;;-1.63;90.75;101711.25;1669044;85;25606;-74
2022/02/12 05:43:43;;;;;;;10.93;5.75;;;;;;;-1.65;90.74;101719.39;1669055;86;27323;-74
2022/02/12 05:46:11;;;;;;;8.83;5.30;;;;;;;-1.67;90.60;101721.39;1668987;86;25440;-74
2022/02/12 05:48:37;;;;;;;10.28;5.25;;;;;;;-1.68;90.62;101731.72;1668996;86;25569;-75
2022/02/12 05:51:03;;;;;;;8.33;4.55;;;;;;;-1.69;90.75;101735.37;1669004;86;25676;-74
2022/02/12 05:53:30;;;;;;;10.28;5.10;;;;;;;-1.72;90.77;101736.59;1668982;84;25574;-74
2022/02/12 05:55:56;;;;;;;6.53;4.60;;;;;;;-1.73;90.74;101742.89;1669031;86;27483;-75
2022/02/12 05:58:23;;;;;;;11.38;4.83;;;;;;;-1.74;90.79;101738.62;1668836;85;25902;-75
2022/02/12 06:00:50;;;;;;;9.38;4.30;;;;;;;-1.73;90.86;101751.38;1668887;85;25446;-74
2022/02/12 06:03:18;;;;;;;8.75;4.50;;;;;;;-1.75;90.72;101757.38;1668973;86;25621;-74
2022/02/12 06:05:45;;;;;;;7.53;4.28;;;;;;;-1.76;90.71;101763.69;1668884;85;25576;-74
2022/02/12 06:08:12;;;;;;;7.90;4.33;;;;;;;-1.77;90.68;101771.31;1669008;86;28115;-74
2022/02/12 06:10:38;;;;;;;9.80;4.70;;;;;;;-1.78;90.70;101773.67;1668778;85;25451;-74
2022/02/12 06:13:05;;;;;;;10.20;4.50;;;;;;;-1.78;90.80;101775.81;1669022;85;25658;-74
2022/02/12 06:15:35;;;;;;;9.08;4.25;;;;;;;-1.78;90.87;101773.16;1668743;85;25685;-75
2022/02/12 06:18:00;;;;;;;7.00;3.90;;;;;;;-1.77;90.90;101773.97;1668502;86;25385;-75
2022/02/12 06:20:26;;;;;;;8.75;3.95;;;;;;;-1.77;90.87;101783.25;1668893;85;27563;-74
2022/02/12 06:22:52;;;;;;;8.43;4.12;;;;;;;-1.76;90.88;101789.70;1669001;86;25646;-74
2022/02/12 06:25:18;;;;;;;13.00;5.17;;;;;;;-1.76;90.75;101790.21;1668878;85;25460;-74
2022/02/12 06:27:46;;;;;;;11.93;5.10;;;;;;;-1.76;90.79;101791.54;1669011;85;26367;-75
2022/02/12 06:30:12;;;;;;;8.65;4.97;;;;;;;-1.75;90.95;101799.31;1669026;86;25472;-75
2022/02/12 06:32:38;;;;;;;10.03;5.62;;;;;;;-1.72;91.12;101800.27;1668999;86;28108;-74
2022/02/12 06:35:05;;;;;;;8.88;5.05;;;;;;;-1.67;91.15;101802.84;1668680;85;25734;-74
2022/02/12 06:37:31;;;;;;;11.43;4.80;;;;;;;-1.63;91.20;101802.80;1668528;86;25662;-74
2022/02/12 06:39:58;;;;;;;13.13;6.45;;;;;;;-1.60;91.26;101800.58;1668616;86;25725;-75
2022/02/12 06:42:26;;;;;;;15.70;7.30;;;;;;;-1.58;91.32;101797.22;1638073;86;25625;-75
2022/02/12 06:44:52;;;;;;;15.32;6.75;;;;;;;-1.55;91.33;101793.34;1668963;86;27545;-75
2022/02/12 06:47:18;;;;;;;11.15;5.95;;;;;;;-1.52;91.39;101796.44;1668910;86;25686;-75
2022/02/12 06:49:45;;;;;;;17.25;7.37;;;;;;;-1.49;91.40;101796.57;1668921;85;25554;-75
2022/02/12 06:52:11;;;;;;;17.67;8.60;;;;;;;-1.45;91.48;101795.67;1668967;86;25690;-75
2022/02/12 06:54:38;;;;;;;21.57;10.18;;;;;;;-1.39;91.61;101798.91;1668961;84;25440;-75
2022/02/12 06:57:04;;;;;;;30.95;13.45;;;;;;;-1.33;91.61;101801.61;1669088;86;28099;-74
2022/02/12 06:59:30;;;;;;;26.95;12.55;;;;;;;-1.24;91.51;101798.30;1669797;85;25650;-75
2022/02/12 07:01:56;;;;;;;23.62;9.48;;;;;;;-1.05;92.49;101802.63;1669541;85;25578;-75
2022/02/12 07:04:24;;;;;;;17.23;8.20;;;;;;;-0.82;93.15;101804.50;1668850;85;25692;-74
2022/02/12 07:06:50;;;;;;;19.55;9.08;;;;;;;-0.54;93.54;101806.27;1669004;86;25600;-75
2022/02/12 07:09:17;;;;;;;17.42;8.95;;;;;;;-0.28;93.59;101808.72;1668439;85;27339;-75
2022/02/12 07:11:44;;;;;;;18.73;9.18;;;;;;;-0.04;93.04;101812.67;1668911;85;25729;-75
2022/02/12 07:14:10;;;;;;;15.13;8.40;;;;;;;0.18;92.54;101823.46;1668990;86;25427;-74
2022/02/12 07:16:37;;;;;;;14.07;6.97;;;;;;;0.39;92.33;101831.48;1668779;85;25631;-75
2022/02/12 07:19:03;;;;;;;16.82;7.22;;;;;;;0.60;91.78;101833.16;1669017;86;25672;-75
2022/02/12 07:21:31;;;;;;;14.55;6.30;;;;;;;0.78;91.23;101841.84;1668920;85;27472;-74
2022/02/12 07:23:57;;;;;;;18.67;10.32;;;;;;;0.96;90.63;101852.70;1668903;85;25594;-74
2022/02/12 07:26:24;;;;;;;31.68;15.83;;;;;;;1.17;90.63;101857.50;1641965;85;25456;-75
2022/02/12 07:28:50;;;;;;;23.07;9.80;;;;;;;1.40;91.18;101863.19;1668915;86;25680;-74
2022/02/12 07:31:18;;;;;;;13.18;6.70;;;;;;;1.75;91.37;101866.86;1668998;86;25487;-74
2022/02/12 07:33:45;;;;;;;16.42;7.37;;;;;;;2.07;91.05;101865.59;1642215;85;27450;-74
2022/02/12 07:36:12;;;;;;;10.23;5.20;;;;;;;2.53;92.21;101867.16;1641707;85;25696;-74
2022/02/12 07:38:39;;;;;;;9.68;4.58;;;;;;;2.97;91.63;101872.05;1668983;85;25487;-74
2022/02/12 07:41:06;;;;;;;8.63;4.72;;;;;;;3.28;89.07;101884.22;1668725;85;25818;-74
2022/02/12 07:43:33;;;;;;;10.08;4.97;;;;;;;3.65;89.48;101890.95;1668994;85;25604;-74
2022/02/12 07:46:00;;;;;;;14.23;6.10;;;;;;;4.01;88.76;101895.97;1668770;85;27605;-74
2022/02/12 07:48:27;;;;;;;9.08;4.12;;;;;;;4.53;88.39;101894.95;1668594;85;25714;-74
2022/02/12 07:50:54;;;;;;;9.93;3.90;;;;;;;4.96;86.07;101898.41;1668749;85;25640;-75
2022/02/12 07:53:23;;;;;;;8.60;4.55;;;;;;;5.67;85.54;101903.72;1668944;85;25653;-75
2022/02/12 07:55:50;;;;;;;11.33;4.47;;;;;;;6.28;83.28;101902.30;1659652;84;25568;-75
2022/02/12 07:58:19;;;;;;;9.40;3.62;;;;;;;7.06;81.97;101902.52;1659046;86;27321;-72
2022/02/12 08:00:47;;;;;;;11.83;4.60;;;;;;;7.79;80.50;101905.14;1659099;86;25638;-72
2022/02/12 08:03:16;;;;;;;10.93;4.25;;;;;;;8.38;79.80;101912.55;1659027;86;25420;-73
2022/02/12 08:05:42;;;;;;;8.00;3.87;;;;;;;8.65;77.77;101925.25;1659105;86;25800;-73
2022/02/12 08:08:09;;;;;;;7.80;4.08;;;;;;;8.81;77.43;101926.72;1659036;86;25624;-73
2022/02/12 08:13:20;;;;;;;13.75;4.15;;;;;;;9.01;73.93;101932.80;1658978;86;25641;-72
2022/02/12 08:15:47;;;;;;;6.58;3.20;;;;;;;9.03;74.12;101936.88;1659021;86;25629;-72
2022/02/12 08:18:13;;;;;;;10.43;3.27;;;;;;;9.04;72.30;101929.08;1658973;86;25666;-73
2022/02/12 08:20:40;;;;;;;7.22;3.30;;;;;;;9.23;73.03;101935.39;1659042;86;25504;-73
2022/02/12 08:23:06;;;;;;;11.30;4.05;;;;;;;9.41;71.88;101938.23;1636050;86;27382;-73
2022/02/12 08:25:33;;;;;;;6.25;3.17;;;;;;;9.46;70.83;101943.66;1658937;86;25703;-73
2022/02/12 08:27:59;;;;;;;6.97;3.55;;;;;;;9.50;70.08;101946.09;1659000;86;25613;-73
2022/02/12 08:30:26;;;;;;;8.30;3.10;;;;;;;9.63;67.53;101952.94;1658989;86;26153;-73
2022/02/12 08:32:53;;;;;;;9.20;4.25;;;;;;;9.63;68.91;101958.34;1659024;86;25606;-73
2022/02/12 08:35:19;;;;;;;7.78;2.98;;;;;;;9.93;70.06;101960.91;1658995;86;27399;-73
2022/02/12 08:37:46;;;;;;;7.72;3.35;;;;;;;10.20;69.12;101966.16;1658911;86;25696;-72
2022/02/12 08:40:18;;;;;;;7.97;3.77;;;;;;;10.63;69.15;101973.62;1659014;86;25425;-72
2022/02/12 08:42:49;;;;;;;44.75;20.68;;;;;;;11.04;68.92;101970.94;1658917;86;25668;-72
2022/02/12 08:45:16;;;;;;;12.20;3.65;;;;;;;11.43;67.21;101970.92;1658993;86;25721;-73
2022/02/12 08:47:47;;;;;;;5.17;3.15;;;;;;;11.58;65.64;101977.11;1636056;86;27349;-73
2022/02/12 08:50:11;;;;;;;6.75;2.92;;;;;;;11.67;64.89;101973.30;1658069;86;25671;-72
2022/02/12 08:52:40;;;;;;;8.58;3.52;;;;;;;12.02;65.11;101979.73;1659042;86;25653;-73
2022/02/12 08:55:09;;;;;;;7.08;2.80;;;;;;;12.26;62.68;101981.25;1668401;84;25685;-73
2022/02/12 08:57:36;;;;;;;5.45;2.92;;;;;;;12.27;61.75;101992.91;1669048;85;25439;-74
2022/02/12 09:00:07;;;;;;;6.28;2.92;;;;;;;12.40;61.29;101992.30;1668843;86;27393;-74
2022/02/12 09:02:34;;;;;;;7.00;2.83;;;;;;;12.47;60.46;101994.70;1668793;86;25723;-74
2022/02/12 09:05:01;;;;;;;7.75;3.22;;;;;;;12.50;60.62;101992.80;1661348;84;25700;-74
2022/02/12 09:07:27;;;;;;;6.78;3.40;;;;;;;12.94;61.25;102000.11;1659212;84;26602;-73
2022/02/12 09:09:54;;;;;;;4.87;2.47;;;;;;;13.30;60.65;102000.34;1668095;86;25557;-74
2022/02/12 09:12:22;;;;;;;7.83;2.70;;;;;;;13.75;60.43;101999.11;1668095;85;27340;-74
2022/02/12 09:14:48;;;;;;;6.08;3.02;;;;;;;13.83;57.96;101997.67;1667971;86;25719;-73
2022/02/12 09:17:15;;;;;;;6.72;2.95;;;;;;;13.99;58.07;101997.73;1668136;86;25627;-73
2022/02/12 09:19:41;;;;;;;10.45;2.45;;;;;;;14.34;57.74;101994.88;1668122;85;25701;-73
2022/02/12 09:22:08;;;;;;;6.42;2.75;;;;;;;14.63;56.75;102000.77;1668196;86;25481;-73
2022/02/12 09:24:34;;;;;;;7.28;2.65;;;;;;;14.90;54.00;102010.43;1668133;86;27300;-73
2022/02/12 09:27:00;;;;;;;6.58;2.40;;;;;;;14.71;53.89;102007.73;1668027;86;25622;-76
2022/02/12 09:29:26;;;;;;;7.25;2.27;;;;;;;14.63;51.99;102014.39;1668257;86;25657;-74
2022/02/12 09:31:53;;;;;;;4.50;2.58;;;;;;;14.14;52.08;101999.47;1668199;86;25654;-72
2022/02/12 09:34:19;;;;;;;4.60;2.55;;;;;;;14.05;54.18;102009.39;1668137;86;25662;-75
2022/02/12 09:36:45;;;;;;;5.37;2.40;;;;;;;13.95;54.30;102019.83;1668199;86;27321;-76
2022/02/12 09:39:13;;;;;;;6.10;2.75;;;;;;;13.85;52.25;102024.59;1637236;86;25740;-76
2022/02/12 09:41:39;;;;;;;10.35;3.20;;;;;;;13.63;53.59;102031.33;1668251;86;25607;-76
2022/02/12 09:44:05;;;;;;;4.17;2.27;;;;;;;13.66;53.36;102029.40;1668192;86;25634;-76
2022/02/12 09:46:58;;;;;;;6.58;2.80;;;;;;;13.59;53.21;102027.57;1668185;86;25662;-76
2022/02/12 09:49:25;;;;;;;4.20;2.00;;;;;;;13.55;51.82;102029.23;1667506;86;27439;-76
2022/02/12 09:51:53;;;;;;;4.45;2.25;;;;;;;12.89;48.02;102028.11;1668159;86;25729;-76
2022/02/12 09:54:20;;;;;;;3.05;1.90;;;;;;;12.09;49.07;102030.97;1668174;86;25646;-76
2022/02/12 09:56:46;;;;;;;3.72;1.90;;;;;;;11.56;48.80;102032.14;1672772;85;25710;-77
2022/02/12 09:59:12;;;;;;;7.60;2.17;;;;;;;11.58;50.98;102043.52;1653115;85;25814;-73
2022/02/12 10:01:40;;;;;;;4.42;2.30;;;;;;;11.74;51.52;102047.55;1639822;87;27410;-73
2022/02/12 10:04:18;;;;;;;6.08;2.77;;;;;;;11.81;51.17;102047.27;1640017;87;25658;-73
2022/02/12 10:06:47;;;;;;;9.50;3.50;;;;;;;11.76;50.83;102054.86;1640109;87;25703;-74
2022/02/12 10:09:14;;;;;;;4.85;2.27;;;;;;;11.82;52.16;102053.78;1640158;87;26285;-73
2022/02/12 10:11:48;;;;;;;4.95;2.20;;;;;;;11.87;50.62;102052.41;1633199;87;25528;-72
2022/02/12 10:14:22;;;;;;;4.10;1.98;;;;;;;11.72;50.09;102051.09;1640142;87;27437;-74
2022/02/12 10:16:55;;;;;;;5.75;2.47;;;;;;;11.83;50.85;102058.66;1639981;87;25736;-74
2022/02/12 10:19:40;;;;;;;5.95;2.37;;;;;;;12.15;51.70;102051.55;1633313;87;25647;-73
2022/02/12 10:22:16;;;;;;;5.20;2.25;;;;;;;12.46;51.33;102049.54;1616734;87;25783;-72
2022/02/12 10:25:03;;;;;;;5.97;2.35;;;;;;;12.40;48.70;102054.71;1641250;87;25757;-74
2022/02/12 10:27:27;;;;;;;6.45;2.08;;;;;;;12.43;49.19;102064.19;1632669;87;27422;-73
2022/02/12 10:29:58;;;;;;;5.03;2.17;;;;;;;11.85;45.46;102070.86;1608057;87;25763;-72
2022/02/12 10:32:26;;;;;;;5.85;2.42;;;;;;;11.16;46.00;102064.91;1634343;87;25324;-72
2022/02/12 10:34:56;;;;;;;4.83;2.27;;;;;;;10.81;47.11;102061.08;1634818;87;25621;-72
2022/02/12 10:37:24;;;;;;;6.45;2.62;;;;;;;10.66;47.64;102051.56;1634876;87;25305;-71
2022/02/12 10:39:57;;;;;;;8.60;2.80;;;;;;;10.59;43.34;102049.11;1641681;87;27366;-71
2022/02/12 10:42:28;;;;;;;5.00;2.30;;;;;;;10.58;48.28;102048.02;1639882;87;25321;-72
2022/02/12 10:44:55;;;;;;;4.20;2.20;;;;;;;10.55;47.26;102048.55;1630498;87;25852;-72
2022/02/12 10:47:23;;;;;;;4.17;2.00;;;;;;;10.42;47.11;102060.14;1641287;87;26418;-71
2022/02/12 10:49:51;;;;;;;6.87;2.53;;;;;;;10.44;48.05;102057.17;1633599;87;25683;-76
2022/02/12 10:52:18;;;;;;;6.58;2.65;;;;;;;10.81;48.15;102053.48;1633273;87;27334;-76
2022/02/12 10:54:51;;;;;;;4.12;2.02;;;;;;;11.54;49.61;102049.22;1641184;85;25738;-76
2022/02/12 10:57:29;;;;;;;5.33;2.00;;;;;;;12.15;45.99;102049.64;1668222;86;25573;-75
2022/02/12 10:59:54;;;;;;;7.90;1.85;;;;;;;12.13;46.44;102045.03;1667763;86;26368;-74
2022/02/12 11:02:22;;;;;;;5.10;2.30;;;;;;;12.44;46.71;102044.11;1641510;85;25433;-75
2022/02/12 11:04:52;;;;;;;8.43;3.58;;;;;;;12.65;47.16;102038.02;1668340;86;27392;-75
2022/02/12 11:07:18;;;;;;;6.15;2.70;;;;;;;13.06;47.48;102043.21;1642232;85;25668;-74
2022/02/12 11:09:46;;;;;;;5.85;2.52;;;;;;;13.26;46.28;102047.66;1668515;86;25696;-76
2022/02/12 11:12:15;;;;;;;7.00;3.00;;;;;;;13.00;45.29;102038.89;1667778;86;26350;-77
2022/02/12 11:14:47;;;;;;;18.05;10.75;;;;;;;12.98;42.53;102043.25;1668474;85;25721;-77
2022/02/12 11:17:17;;;;;;;3.92;2.35;;;;;;;12.84;44.23;102035.48;1668466;85;27326;-75
2022/02/12 11:19:45;;;;;;;4.90;2.10;;;;;;;12.87;44.25;102028.94;1667592;85;25708;-77
2022/02/12 11:22:12;;;;;;;6.05;1.70;;;;;;;13.14;42.35;102031.71;1668661;86;25700;-74
2022/02/12 11:24:44;;;;;;;7.60;4.10;;;;;;;13.46;43.59;102037.19;1641598;85;26323;-73
2022/02/12 11:27:29;;;;;;;4.85;2.58;;;;;;;14.72;42.56;102031.67;1668649;86;25726;-76
2022/02/12 11:30:17;;;;;;;3.72;2.58;;;;;;;15.80;42.36;102025.81;1668380;86;27385;-73
2022/02/12 11:32:45;;;;;;;4.87;2.60;;;;;;;16.24;42.39;102024.39;1668379;86;25701;-73
2022/02/12 11:35:17;;;;;;;5.30;3.45;;;;;;;16.37;42.28;102018.67;1667578;86;25652;-74